Abbot Village, Maine
Current Conditions -  °F | °C
As of 12:53 PM on Friday 31 Oct 2014 (Local Time) from KBGR Reporting Station
Broken Clouds Broken Clouds  
Wind Chill: 49°   Ceiling: 4300
Heat Index: 49°   Visibility: 10mi
Dew Point: 30°   Wind: 3mph
Humidity: 48%   Direction: 330°NNW
Pressure: 30.03"   Gusts: NA
Location:  45.19°N, 69.45°W
Report Text: KBGR 311653Z 33003KT 10SM BKN043 BKN060 09/M01 A3003 RMK AO2 SLP170 T00941011
Loading
Personal Weather Stations






























Interactive Weather Map
Tropical Storm Tracking
New forecast layout! Learn more

10-Day Weather Forecast

Advertisements
Track Severe Weather on mobile